Terminal Aerodrome Forecast
Issued by NWS Wilmington, OH

Home | Current Version | Previous Version | Text Only | Print | Product List | Glossary On
Versions: 1 2 3 4 5 6 7 8 9 10 11 12 13 14 15 16 17 18 19 20 21 22 23
000
FTUS41 KILN 300531
TAFCVG
TAF
KCVG 300531Z 3006/3112 31003KT P6SM BKN250
      TEMPO 3009/3012 4SM BR
     FM301500 31008KT P6SM SCT040
     FM310000 00000KT P6SM SKC=

USA.gov is the U.S. government's official web portal to all federal, state and local government web resources and services.